createdAt,value
2018-09-12T00:04:25.218Z,15.50
2018-09-12T00:09:28.471Z,15.60
2018-09-12T00:19:34.759Z,15.20
2018-09-12T00:24:38.077Z,15.10
2018-09-12T00:29:41.337Z,15.10
2018-09-12T00:34:44.636Z,15.00
2018-09-12T00:39:47.925Z,15.00
2018-09-12T00:44:51.188Z,15.00
2018-09-12T00:49:54.446Z,15.00
2018-09-12T00:54:57.725Z,15.00
2018-09-12T01:00:00.967Z,14.90
2018-09-12T01:05:04.264Z,14.80
2018-09-12T01:10:07.544Z,14.70
2018-09-12T01:20:13.900Z,14.40
2018-09-12T01:25:17.172Z,14.30
2018-09-12T01:30:23.483Z,14.50
2018-09-12T01:35:26.761Z,14.60
2018-09-12T01:40:30.029Z,14.60
2018-09-12T01:45:33.285Z,14.50
2018-09-12T01:50:36.576Z,14.60
2018-09-12T01:55:39.888Z,14.60
2018-09-12T02:00:43.193Z,14.50
2018-09-12T02:05:46.453Z,14.50
2018-09-12T02:10:49.704Z,14.40
2018-09-12T02:15:52.976Z,14.30
2018-09-12T02:20:56.296Z,14.40
2018-09-12T02:25:59.579Z,14.30
2018-09-12T02:31:02.904Z,14.10
2018-09-12T02:36:11.557Z,14.00
2018-09-12T02:41:14.833Z,13.90
2018-09-12T02:46:18.114Z,13.90
2018-09-12T02:56:31.137Z,13.70
2018-09-12T03:01:34.448Z,13.60
2018-09-12T03:06:37.718Z,13.70
2018-09-12T03:16:44.017Z,13.80
2018-09-12T03:21:47.292Z,13.60
2018-09-12T03:26:50.563Z,13.60
2018-09-12T03:31:53.910Z,13.60
2018-09-12T03:36:57.274Z,13.50
2018-09-12T03:42:00.545Z,13.50
2018-09-12T03:47:03.833Z,13.50
2018-09-12T03:52:07.087Z,13.40
2018-09-12T03:57:10.745Z,13.40
2018-09-12T04:07:17.765Z,13.20
2018-09-12T04:12:21.065Z,13.20
2018-09-12T04:17:28.726Z,13.00
2018-09-12T04:22:32.264Z,13.00
2018-09-12T04:27:35.548Z,13.10
2018-09-12T04:32:38.835Z,13.10
2018-09-12T04:47:48.534Z,13.00
2018-09-12T04:52:51.809Z,13.10
2018-09-12T04:57:55.073Z,13.20
2018-09-12T05:02:58.446Z,13.20
2018-09-12T05:08:01.743Z,13.20
2018-09-12T05:13:05.112Z,13.40
2018-09-12T05:18:08.388Z,13.50
2018-09-12T05:23:11.661Z,13.60
2018-09-12T05:28:14.951Z,14.00
2018-09-12T05:33:18.240Z,14.40
2018-09-12T05:38:21.508Z,15.00
2018-09-12T05:43:24.771Z,15.00
2018-09-12T05:48:28.046Z,15.70
2018-09-12T05:53:31.303Z,15.80
2018-09-12T05:58:34.608Z,15.80
2018-09-12T06:03:37.903Z,16.00
2018-09-12T06:08:41.177Z,16.40
2018-09-12T06:13:45.554Z,16.90
2018-09-12T06:18:48.984Z,17.10
2018-09-12T06:23:52.265Z,17.30
2018-09-12T06:28:55.520Z,16.70
2018-09-12T06:33:58.780Z,16.70
2018-09-12T06:39:02.082Z,17.50
2018-09-12T06:44:05.340Z,17.70
2018-09-12T06:49:08.621Z,18.80
2018-09-12T06:54:11.891Z,19.10
2018-09-12T06:59:15.280Z,19.10
2018-09-12T07:04:18.528Z,18.90
2018-09-12T07:09:21.789Z,18.80
2018-09-12T07:14:25.107Z,19.30
2018-09-12T07:19:28.359Z,19.60
2018-09-12T07:24:31.775Z,19.90
2018-09-12T07:29:34.860Z,20.40
2018-09-12T07:34:39.234Z,20.20
2018-09-12T07:39:42.482Z,20.70
2018-09-12T07:44:45.764Z,21.20
2018-09-12T07:49:49.188Z,21.70
2018-09-12T07:54:52.445Z,22.00
2018-09-12T07:59:55.727Z,21.60
2018-09-12T08:04:59.055Z,22.00
2018-09-12T08:10:02.387Z,21.30
2018-09-12T08:15:05.664Z,22.20
2018-09-12T08:20:08.957Z,22.40
2018-09-12T08:25:12.216Z,22.80
2018-09-12T08:30:15.500Z,22.50
2018-09-12T08:35:18.986Z,23.00
2018-09-12T08:40:22.270Z,22.50
2018-09-12T08:45:25.718Z,23.20
2018-09-12T08:50:28.973Z,23.10
2018-09-12T08:55:32.243Z,22.90
2018-09-12T09:00:36.090Z,23.70
2018-09-12T09:05:39.382Z,23.00
2018-09-12T09:10:42.645Z,23.40
2018-09-12T09:15:45.900Z,24.20
2018-09-12T09:20:49.165Z,24.70
2018-09-12T09:25:52.412Z,24.40
2018-09-12T09:30:55.674Z,23.80
2018-09-12T09:35:58.937Z,24.20
2018-09-12T09:41:02.252Z,24.50
2018-09-12T09:46:05.641Z,24.60
2018-09-12T09:51:08.907Z,24.50
2018-09-12T09:56:12.180Z,24.60
2018-09-12T10:01:20.865Z,24.20
2018-09-12T10:06:27.698Z,24.50
2018-09-12T10:11:31.141Z,24.60
2018-09-12T10:16:34.386Z,25.30
2018-09-12T10:21:37.675Z,26.10
2018-09-12T10:26:40.948Z,26.70
2018-09-12T10:31:44.205Z,25.70
2018-09-12T10:36:47.464Z,25.70
2018-09-12T10:41:50.767Z,27.00
2018-09-12T10:46:54.029Z,26.20
2018-09-12T10:51:57.286Z,26.30
2018-09-12T10:57:00.849Z,26.90
2018-09-12T11:02:04.113Z,27.90
2018-09-12T11:07:07.385Z,29.00
2018-09-12T11:12:10.636Z,29.00
2018-09-12T11:17:13.904Z,27.70
2018-09-12T11:22:17.180Z,28.00
2018-09-12T11:27:20.470Z,29.40
2018-09-12T11:32:23.740Z,28.50
2018-09-12T11:37:27.014Z,27.90
2018-09-12T11:42:30.288Z,29.40
2018-09-12T11:47:33.558Z,29.00
2018-09-12T11:52:36.829Z,28.80
2018-09-12T11:57:40.143Z,29.50
2018-09-12T12:02:43.416Z,29.90
2018-09-12T12:07:46.685Z,30.00
2018-09-12T12:12:49.924Z,31.20
2018-09-12T12:17:53.269Z,30.10
2018-09-12T12:22:56.532Z,29.30
2018-09-12T12:27:59.785Z,29.70
2018-09-12T12:33:03.068Z,29.20
2018-09-12T12:38:06.368Z,30.80
2018-09-12T12:43:09.757Z,30.10
2018-09-12T12:48:13.036Z,30.10
2018-09-12T12:53:16.297Z,29.80
2018-09-12T12:58:19.594Z,29.40
2018-09-12T13:03:22.866Z,29.90
2018-09-12T13:08:26.133Z,30.70
2018-09-12T13:13:30.220Z,31.70
2018-09-12T13:18:33.509Z,31.40
2018-09-12T13:23:36.785Z,30.20
2018-09-12T13:28:40.072Z,30.80
2018-09-12T13:33:43.368Z,31.20
2018-09-12T13:38:46.653Z,30.80
2018-09-12T13:43:49.945Z,31.20
2018-09-12T13:48:53.205Z,30.50
2018-09-12T13:53:57.032Z,31.70
2018-09-12T13:59:00.353Z,31.80
2018-09-12T14:04:03.655Z,32.10
2018-09-12T14:09:09.121Z,32.10
2018-09-12T14:14:12.406Z,32.60
2018-09-12T14:19:16.906Z,32.50
2018-09-12T14:24:20.438Z,32.50
2018-09-12T14:29:23.703Z,32.00
2018-09-12T14:34:26.982Z,31.40
2018-09-12T14:39:30.527Z,31.70
2018-09-12T14:44:33.785Z,32.50
2018-09-12T14:49:37.065Z,33.20
2018-09-12T14:54:40.807Z,31.80
2018-09-12T14:59:44.121Z,31.70
2018-09-12T15:04:47.435Z,31.30
2018-09-12T15:09:50.691Z,32.20
2018-09-12T15:14:53.967Z,32.00
2018-09-12T15:19:58.992Z,31.90
2018-09-12T15:25:03.572Z,31.50
2018-09-12T15:30:07.160Z,30.80
2018-09-12T15:35:12.006Z,31.10
2018-09-12T15:40:15.461Z,30.70
2018-09-12T15:45:18.746Z,31.90
2018-09-12T15:50:23.632Z,31.10
2018-09-12T15:55:26.896Z,30.80
2018-09-12T16:00:30.192Z,30.40
2018-09-12T16:05:35.080Z,30.00
2018-09-12T16:10:38.370Z,30.40
2018-09-12T16:15:41.668Z,30.00
2018-09-12T16:20:44.954Z,29.60
2018-09-12T16:25:48.240Z,29.00
2018-09-12T16:30:51.542Z,28.60
2018-09-12T16:35:54.812Z,28.80
2018-09-12T16:40:58.253Z,29.10
2018-09-12T16:46:01.570Z,28.90
2018-09-12T16:51:06.498Z,28.70
2018-09-12T16:56:10.617Z,28.30
2018-09-12T17:01:14.361Z,28.00
2018-09-12T17:06:17.712Z,27.50
2018-09-12T17:11:21.714Z,27.00
2018-09-12T17:16:25.947Z,26.50
2018-09-12T17:21:30.148Z,26.10
2018-09-12T17:26:33.697Z,25.70
2018-09-12T17:31:37.172Z,25.40
2018-09-12T17:36:40.797Z,25.20
2018-09-12T17:41:44.060Z,24.90
2018-09-12T17:46:47.358Z,24.40
2018-09-12T17:51:50.640Z,23.90
2018-09-12T17:56:53.964Z,23.60
2018-09-12T18:01:57.293Z,19.70
2018-09-12T18:07:00.581Z,23.40
2018-09-12T18:12:03.863Z,23.40
2018-09-12T18:17:07.261Z,23.40
2018-09-12T18:27:13.677Z,23.00
2018-09-12T18:32:16.953Z,22.70
2018-09-12T18:37:20.265Z,22.70
2018-09-12T18:42:23.542Z,22.60
2018-09-12T18:47:28.644Z,22.60
2018-09-12T18:52:32.225Z,22.40
2018-09-12T18:57:35.530Z,22.30
2018-09-12T19:02:38.884Z,22.20
2018-09-12T19:07:42.188Z,22.20
2018-09-12T19:12:45.515Z,22.10
2018-09-12T19:22:51.736Z,21.80
2018-09-12T19:27:55.056Z,21.80
2018-09-12T19:32:58.345Z,21.70
2018-09-12T19:38:01.639Z,21.40
2018-09-12T19:43:04.992Z,21.10
2018-09-12T19:48:08.277Z,20.90
2018-09-12T19:53:11.678Z,20.70
2018-09-12T19:58:14.969Z,20.60
2018-09-12T20:18:28.145Z,20.00
2018-09-12T20:38:43.891Z,19.80
2018-09-12T20:43:47.178Z,19.30
2018-09-12T20:48:50.448Z,19.30
2018-09-12T20:53:53.716Z,19.30
2018-09-12T20:58:57.170Z,19.20
2018-09-12T21:04:00.584Z,19.20
2018-09-12T21:09:05.730Z,19.30
2018-09-12T21:14:13.471Z,18.90
2018-09-12T21:19:17.781Z,19.10
2018-09-12T21:24:21.041Z,18.90
2018-09-12T21:29:24.316Z,18.80
2018-09-12T21:34:27.624Z,18.60
2018-09-12T21:39:30.888Z,18.50
2018-09-12T21:44:34.141Z,18.50
2018-09-12T21:49:37.540Z,18.60
2018-09-12T21:54:40.952Z,18.40
2018-09-12T21:59:44.221Z,18.40
2018-09-12T22:04:48.659Z,18.30
2018-09-12T22:09:51.917Z,18.40
2018-09-12T22:14:55.205Z,18.30
2018-09-12T22:19:58.453Z,18.00
2018-09-12T22:25:01.733Z,17.80
2018-09-12T22:30:06.768Z,17.90
2018-09-12T22:35:10.037Z,17.70
2018-09-12T22:40:13.329Z,17.80
2018-09-12T22:45:16.596Z,17.70
2018-09-12T22:50:19.867Z,17.70
2018-09-12T22:55:23.116Z,17.60
2018-09-12T23:00:26.423Z,17.50
2018-09-12T23:05:29.692Z,17.40
2018-09-12T23:10:32.955Z,17.00
2018-09-12T23:15:36.234Z,16.80
2018-09-12T23:20:39.513Z,16.90
2018-09-12T23:25:42.930Z,16.90
2018-09-12T23:30:46.196Z,16.90
2018-09-12T23:35:49.487Z,17.00
2018-09-12T23:40:52.758Z,17.10
2018-09-12T23:45:56.015Z,17.00
2018-09-12T23:50:59.309Z,17.10
2018-09-12T23:56:02.636Z,17.10
